Maze, Pennsylvania
Current Conditions -  °F | °C
As of 4:13 PM on Saturday 20 Dec 2014 (Local Time) from KSEG Reporting Station
Overcast Overcast  
Wind Chill: 33°   Ceiling: 3000
Heat Index: 33°   Visibility: 10mi
Dew Point: 20°   Wind: 0mph
Humidity: 59%   Direction: NA
Pressure: 30.26"   Gusts: NA
Location:  40.6058°N, 77.1728°W
Report Text: KSEG 202113Z AUTO 00000KT 10SM OVC030 01/M07 A3026 RMK AO2 T00061067
Loading
Personal Weather Stations






























Interactive Weather Map New forecast layout! Learn more

10-Day Weather Forecast

Advertisements
Track Severe Weather on mobile